CW7992 Leck/Flensburg DE current weather conditions

sailwx.info

Wind from 145 at 2 knots gusting 6

Air temperature 3.9° C
Dewpoint 2.9° C

Last reported at 2019-Dec-12 17:51 UTC.
Time now 2019-Dec-12 18:42 UTC

Location: N 54°52' E 008°55'.
View on Google Maps.

See reports from other nearby stations

  
Tides and Currents Weather Stations Pressure Air Temp Water Temp Dewpoint Dewpoint Depression Visibility Wind Speed Wind Dir Waves Ship Positions
date/time (UTC)wind fromknots sea level pressurealtimeterstation pressurevisibilityair tempwater tempwave heightnotes
2019-Dec-12 17:51 145 2 gusting 6 3.9
2019-Dec-12 17:41 207 2 gusting 6 3.9
2019-Dec-12 17:31 183 3 gusting 5 4.4
2019-Dec-12 17:21 191 2 gusting 8 4.4
2019-Dec-12 17:11 194 1 gusting 5 4.4
2019-Dec-12 17:01 207 1 gusting 4 4.4
2019-Dec-12 16:41 201 1 gusting 9 4.4
2019-Dec-12 16:21 169 4 gusting 11 4.4
2019-Dec-12 15:31 132 2 gusting 9 4.4
2019-Dec-12 15:11 219 3 gusting 8 5.0
2019-Dec-12 15:01 221 7 gusting 11 5.0
2019-Dec-12 14:41 200 7 gusting 15 5.0
2019-Dec-12 14:31 205 3 gusting 10 5.0
2019-Dec-12 13:51 219 5 gusting 8 5.0
2019-Dec-12 13:41 188 2 gusting 6 5.0
2019-Dec-12 13:11 129 6 gusting 9 5.0
2019-Dec-12 13:01 178 4 gusting 8 5.0
2019-Dec-12 12:51 221 6 gusting 10 5.0
2019-Dec-12 12:11 184 4 gusting 6 5.0
2019-Dec-12 12:01 212 4 gusting 9 5.0
2019-Dec-12 11:41 198 3 gusting 6 5.0
2019-Dec-12 11:31 188 2 gusting 6 5.0
2019-Dec-12 11:21 181 3 gusting 8 5.6
2019-Dec-12 11:11 153 6 gusting 12 5.6
2019-Dec-12 11:01 199 6 gusting 16 5.6
2019-Dec-12 10:51 127 4 gusting 13 5.6
2019-Dec-12 10:41 186 6 gusting 15 5.6
2019-Dec-12 10:31 210 5 gusting 11 5.6
2019-Dec-12 10:21 211 6 gusting 11 5.6
2019-Dec-12 10:11 167 1 gusting 8 5.0
2019-Dec-12 10:01 206 3 gusting 10 5.0
2019-Dec-12 09:11 169 3 gusting 8 5.0
2019-Dec-12 09:01 190 4 gusting 9 5.0
2019-Dec-12 08:51 139 2 gusting 5 4.4
2019-Dec-12 08:11 146 0 gusting 5 4.4
2019-Dec-12 08:01 219 2 gusting 8 4.4
2019-Dec-12 07:21 144 0 gusting 5 4.4
2019-Dec-12 06:51 131 1 gusting 6 4.4
2019-Dec-12 06:31 151 0 gusting 6 4.4
2019-Dec-12 06:11 148 0 gusting 5 4.4
2019-Dec-12 06:01 196 2 gusting 5 4.4
2019-Dec-12 05:51 197 1 gusting 10 4.4
2019-Dec-12 04:41 163 2 gusting 8 4.4
2019-Dec-12 04:31 203 0 gusting 8 4.4
2019-Dec-12 04:21 184 1 gusting 10 4.4
2019-Dec-12 04:01 202 2 gusting 6 4.4
2019-Dec-12 03:41 221 2 gusting 6 4.4
2019-Dec-12 03:21 169 0 gusting 1 4.4
2019-Dec-12 03:01 192 1 gusting 5 4.4
2019-Dec-12 02:51 183 4.4
2019-Dec-12 02:41 207 1 gusting 6 4.4
2019-Dec-12 02:21 180 1 gusting 4 5.0
2019-Dec-12 02:01 155 0 gusting 1 5.0
2019-Dec-12 01:51 193 0 gusting 6 5.0
2019-Dec-12 00:31 195 4.4
2019-Dec-12 00:01 195 4.4
2019-Dec-11 23:41 195 4.4
2019-Dec-11 23:21 195 5.0
2019-Dec-11 23:11 196 5.0
2019-Dec-11 23:01 196 5.0
2019-Dec-11 22:51 196 5.0
2019-Dec-11 22:41 196 5.0
2019-Dec-11 22:31 196 5.0
2019-Dec-11 22:01 186 0 gusting 4 4.4
2019-Dec-11 21:51 194 0 gusting 1 4.4
2019-Dec-11 21:41 195 4.4
2019-Dec-11 21:31 195 4.4
2019-Dec-11 21:21 195 4.4
2019-Dec-11 21:11 196 4.4
2019-Dec-11 21:01 195 3.9
2019-Dec-11 20:51 195 3.9
2019-Dec-11 20:41 196 3.9
2019-Dec-11 20:21 198 3.9
2019-Dec-11 20:11 198 3.9
2019-Dec-11 20:01 198 4.4
2019-Dec-11 19:51 198 4.4
2019-Dec-11 19:41 198 4.4
2019-Dec-11 19:11 198 5.0
2019-Dec-11 18:41 196 5.6
2019-Dec-11 18:31 193 5.6
2019-Dec-11 18:21 195 5.6
2019-Dec-11 18:11 193 5.6
2019-Dec-11 17:51 205 0 gusting 6 5.6
2019-Dec-11 17:21 194 5.6
2019-Dec-11 16:51 259 0 gusting 4 5.0
2019-Dec-11 16:31 173 5.0
2019-Dec-11 16:21 192 5.0
2019-Dec-11 15:21 221 0 gusting 5 6.1
2019-Dec-11 15:11 138 2 gusting 6 6.1
2019-Dec-11 15:01 185 0 gusting 5 6.1
2019-Dec-11 14:51 213 0 gusting 6 6.1
2019-Dec-11 14:41 181 0 gusting 6 6.1
2019-Dec-11 14:31 243 2 gusting 6 6.1
2019-Dec-11 14:11 171 6.7
2019-Dec-11 13:01 192 5 gusting 9 6.7
2019-Dec-11 12:51 198 0 gusting 6 6.7
2019-Dec-11 12:11 214 3 gusting 6 6.7
2019-Dec-11 12:01 207 1 gusting 13 6.7
2019-Dec-11 11:51 152 0 gusting 8 6.7
2019-Dec-11 11:31 190 6 gusting 11 6.7
2019-Dec-11 11:11 215 4 gusting 10 6.7
2019-Dec-11 10:51 146 1 gusting 6 6.7
2019-Dec-11 10:31 150 2 gusting 9 6.7
2019-Dec-11 10:11 193 6 gusting 11 6.7
2019-Dec-11 10:01 202 3 gusting 9 6.7
2019-Dec-11 09:41 198 3 gusting 9 6.7
2019-Dec-11 09:31 192 3 gusting 12 6.7
2019-Dec-11 09:11 220 6 gusting 11 6.7
2019-Dec-11 09:01 212 3 gusting 10 6.7
2019-Dec-11 08:41 177 4 gusting 10 6.1
2019-Dec-11 08:31 210 1 gusting 9 6.1
2019-Dec-11 08:21 214 5 gusting 10 6.1
2019-Dec-11 08:01 153 4 gusting 11 6.1
2019-Dec-11 07:41 216 6 gusting 10 6.7
2019-Dec-11 07:21 200 6 gusting 11 6.1
2019-Dec-11 07:11 192 5 gusting 12 6.1
2019-Dec-11 07:01 236 9 gusting 14 6.1
2019-Dec-11 06:51 204 6 gusting 16 6.1
2019-Dec-11 06:21 197 8 gusting 16 6.1
2019-Dec-11 06:01 108 11 gusting 20 6.1
2019-Dec-11 05:21 191 5 gusting 18 6.1
2019-Dec-11 05:11 149 6 gusting 14 6.1
2019-Dec-11 04:51 163 9 gusting 16 6.1
2019-Dec-11 04:41 171 8 gusting 19 6.1
2019-Dec-11 04:31 200 7 gusting 14 6.1
2019-Dec-11 04:21 202 8 gusting 22 6.1
2019-Dec-11 02:51 202 6 gusting 15 5.0
2019-Dec-11 02:31 236 7 gusting 23 5.0
2019-Dec-11 02:11 162 7 gusting 18 5.0
2019-Dec-11 01:51 203 9 gusting 18 5.0
2019-Dec-11 01:41 188 7 gusting 19 5.0
2019-Dec-11 01:21 200 6 gusting 20 4.4
2019-Dec-11 01:01 193 10 gusting 20 4.4
2019-Dec-11 00:51 208 7 gusting 20 4.4
2019-Dec-11 00:11 151 8 gusting 20 5.0
2019-Dec-10 23:41 201 10 gusting 19 5.0
2019-Dec-10 23:11 246 6 gusting 15 4.4
2019-Dec-10 23:01 202 6 gusting 20 4.4
2019-Dec-10 22:41 190 8 gusting 21 4.4
2019-Dec-10 22:31 204 7 gusting 18 4.4
2019-Dec-10 22:21 201 7 gusting 16 4.4
2019-Dec-10 22:11 221 7 gusting 22 3.9
2019-Dec-10 21:41 121 7 gusting 18 3.9
2019-Dec-10 21:31 229 8 gusting 22 3.9
2019-Dec-10 21:21 149 7 gusting 14 3.9
2019-Dec-10 21:11 146 8 gusting 28 3.9
2019-Dec-10 21:01 123 7 gusting 14 3.9
2019-Dec-10 20:51 142 10 gusting 19 3.9
2019-Dec-10 20:41 147 8 gusting 19 3.9
2019-Dec-10 20:31 149 8 gusting 19 3.9
2019-Dec-10 20:21 156 9 gusting 18 3.9
2019-Dec-10 20:11 155 6 gusting 12 3.9
2019-Dec-10 19:31 198 8 gusting 22 3.9
2019-Dec-10 19:21 240 7 gusting 19 3.9
2019-Dec-10 18:41 148 6 gusting 16 3.9
2019-Dec-10 18:21 154 6 gusting 13 3.9
2019-Dec-10 18:01 189 6 gusting 18 3.9